sensor_id;sensor_type;location;lat;lon;timestamp;temperature;humidity
65235;DHT22;51820;48.374;10.930;2022-10-22T00:01:19;15.50;82.50
65235;DHT22;51820;48.374;10.930;2022-10-22T00:11:15;15.50;82.60
65235;DHT22;51820;48.374;10.930;2022-10-22T00:13:45;13.30;93.00
65235;DHT22;51820;48.374;10.930;2022-10-22T00:16:19;15.40;82.70
65235;DHT22;51820;48.374;10.930;2022-10-22T00:26:13;15.00;93.60
65235;DHT22;51820;48.374;10.930;2022-10-22T00:28:41;14.00;92.40
65235;DHT22;51820;48.374;10.930;2022-10-22T00:33:39;15.40;83.10
65235;DHT22;51820;48.374;10.930;2022-10-22T00:36:07;15.40;83.20
65235;DHT22;51820;48.374;10.930;2022-10-22T00:43:51;15.30;83.40
65235;DHT22;51820;48.374;10.930;2022-10-22T00:46:19;14.20;93.70
65235;DHT22;51820;48.374;10.930;2022-10-22T00:48:49;15.30;83.40
65235;DHT22;51820;48.374;10.930;2022-10-22T00:51:19;15.40;83.50
65235;DHT22;51820;48.374;10.930;2022-10-22T00:53:51;15.40;83.50
65235;DHT22;51820;48.374;10.930;2022-10-22T00:56:22;15.40;83.50
65235;DHT22;51820;48.374;10.930;2022-10-22T00:58:53;15.40;84.50
65235;DHT22;51820;48.374;10.930;2022-10-22T01:01:24;15.30;94.00
65235;DHT22;51820;48.374;10.930;2022-10-22T01:03:55;15.20;83.70
65235;DHT22;51820;48.374;10.930;2022-10-22T01:06:25;15.40;83.90
65235;DHT22;51820;48.374;10.930;2022-10-22T01:09:02;19.70;95.40
65235;DHT22;51820;48.374;10.930;2022-10-22T01:11:42;15.40;84.10
65235;DHT22;51820;48.374;10.930;2022-10-22T01:14:17;15.40;84.00
65235;DHT22;51820;48.374;10.930;2022-10-22T01:16:53;15.40;84.10
65235;DHT22;51820;48.374;10.930;2022-10-22T01:19:36;13.10;93.60
65235;DHT22;51820;48.374;10.930;2022-10-22T01:22:12;13.40;93.70
65235;DHT22;51820;48.374;10.930;2022-10-22T01:24:51;20.30;95.30
65235;DHT22;51820;48.374;10.930;2022-10-22T01:27:30;15.30;84.00
65235;DHT22;51820;48.374;10.930;2022-10-22T01:30:03;15.30;84.00
65235;DHT22;51820;48.374;10.930;2022-10-22T01:32:37;15.40;84.00
65235;DHT22;51820;48.374;10.930;2022-10-22T01:35:09;20.00;95.20
65235;DHT22;51820;48.374;10.930;2022-10-22T01:37:43;15.40;83.90
65235;DHT22;51820;48.374;10.930;2022-10-22T01:40:15;13.70;93.70
65235;DHT22;51820;48.374;10.930;2022-10-22T01:42:54;15.40;84.00
65235;DHT22;51820;48.374;10.930;2022-10-22T01:45:24;13.30;93.70
65235;DHT22;51820;48.374;10.930;2022-10-22T01:47:57;15.30;84.30
65235;DHT22;51820;48.374;10.930;2022-10-22T01:50:58;15.30;84.50
65235;DHT22;51820;48.374;10.930;2022-10-22T01:53:39;15.30;84.50
65235;DHT22;51820;48.374;10.930;2022-10-22T01:56:22;15.30;84.60
65235;DHT22;51820;48.374;10.930;2022-10-22T01:59:05;15.20;84.50
65235;DHT22;51820;48.374;10.930;2022-10-22T02:01:40;15.20;84.50
65235;DHT22;51820;48.374;10.930;2022-10-22T02:04:14;15.10;84.40
65235;DHT22;51820;48.374;10.930;2022-10-22T02:06:46;15.10;84.60
65235;DHT22;51820;48.374;10.930;2022-10-22T02:09:15;15.10;84.40
65235;DHT22;51820;48.374;10.930;2022-10-22T02:11:45;15.00;84.40
65235;DHT22;51820;48.374;10.930;2022-10-22T02:14:15;15.00;84.00
65235;DHT22;51820;48.374;10.930;2022-10-22T02:16:47;15.00;83.40
65235;DHT22;51820;48.374;10.930;2022-10-22T02:19:19;15.00;83.10
65235;DHT22;51820;48.374;10.930;2022-10-22T02:21:50;15.00;83.00
65235;DHT22;51820;48.374;10.930;2022-10-22T02:24:20;15.00;82.80
65235;DHT22;51820;48.374;10.930;2022-10-22T02:26:54;15.10;82.30
65235;DHT22;51820;48.374;10.930;2022-10-22T02:29:28;15.00;82.30
65235;DHT22;51820;48.374;10.930;2022-10-22T02:32:00;15.00;82.50
65235;DHT22;51820;48.374;10.930;2022-10-22T02:34:31;15.00;82.30
65235;DHT22;51820;48.374;10.930;2022-10-22T02:37:01;12.50;92.70
65235;DHT22;51820;48.374;10.930;2022-10-22T02:39:30;14.90;81.60
65235;DHT22;51820;48.374;10.930;2022-10-22T02:42:00;19.40;94.00
65235;DHT22;51820;48.374;10.930;2022-10-22T02:44:28;14.20;92.90
65235;DHT22;51820;48.374;10.930;2022-10-22T02:46:58;13.80;92.70
65235;DHT22;51820;48.374;10.930;2022-10-22T02:51:55;12.80;92.50
65235;DHT22;51820;48.374;10.930;2022-10-22T03:04:19;14.70;82.50
65235;DHT22;51820;48.374;10.930;2022-10-22T03:06:47;15.80;93.80
65235;DHT22;51820;48.374;10.930;2022-10-22T03:21:48;14.60;82.50
65235;DHT22;51820;48.374;10.930;2022-10-22T03:24:19;12.40;93.40
65235;DHT22;51820;48.374;10.930;2022-10-22T03:26:49;14.60;82.20
65235;DHT22;51820;48.374;10.930;2022-10-22T03:29:21;13.20;93.20
65235;DHT22;51820;48.374;10.930;2022-10-22T03:31:51;14.50;82.30
65235;DHT22;51820;48.374;10.930;2022-10-22T03:36:50;14.50;82.10
65235;DHT22;51820;48.374;10.930;2022-10-22T03:39:20;14.50;82.20
65235;DHT22;51820;48.374;10.930;2022-10-22T03:41:49;12.50;92.90
65235;DHT22;51820;48.374;10.930;2022-10-22T03:44:18;19.30;94.60
65235;DHT22;51820;48.374;10.930;2022-10-22T03:54:17;14.40;81.90
65235;DHT22;51820;48.374;10.930;2022-10-22T04:09:08;13.70;93.30
65235;DHT22;51820;48.374;10.930;2022-10-22T04:11:37;14.30;81.80
65235;DHT22;51820;48.374;10.930;2022-10-22T04:28:58;13.90;93.30
65235;DHT22;51820;48.374;10.930;2022-10-22T04:33:56;14.30;81.70
65235;DHT22;51820;48.374;10.930;2022-10-22T04:36:25;13.30;93.00
65235;DHT22;51820;48.374;10.930;2022-10-22T04:38:55;14.30;81.50
65235;DHT22;51820;48.374;10.930;2022-10-22T04:41:26;14.30;81.50
65235;DHT22;51820;48.374;10.930;2022-10-22T04:43:55;14.30;81.50
65235;DHT22;51820;48.374;10.930;2022-10-22T04:46:29;14.30;81.40
65235;DHT22;51820;48.374;10.930;2022-10-22T04:56:25;14.20;81.60
65235;DHT22;51820;48.374;10.930;2022-10-22T04:58:55;12.20;92.80
65235;DHT22;51820;48.374;10.930;2022-10-22T05:01:25;17.70;94.00
65235;DHT22;51820;48.374;10.930;2022-10-22T05:03:56;14.20;81.10
65235;DHT22;51820;48.374;10.930;2022-10-22T05:06:26;14.20;80.90
65235;DHT22;51820;48.374;10.930;2022-10-22T05:08:56;14.10;80.80
65235;DHT22;51820;48.374;10.930;2022-10-22T05:11:26;14.20;80.80
65235;DHT22;51820;48.374;10.930;2022-10-22T05:16:24;14.20;80.80
65235;DHT22;51820;48.374;10.930;2022-10-22T05:21:22;14.10;80.40
65235;DHT22;51820;48.374;10.930;2022-10-22T05:26:24;14.20;80.30
65235;DHT22;51820;48.374;10.930;2022-10-22T05:36:20;14.20;79.50
65235;DHT22;51820;48.374;10.930;2022-10-22T05:38:50;14.20;79.50
65235;DHT22;51820;48.374;10.930;2022-10-22T05:41:20;14.10;79.40
65235;DHT22;51820;48.374;10.930;2022-10-22T05:43:49;14.10;79.30
65235;DHT22;51820;48.374;10.930;2022-10-22T05:46:20;14.10;79.50
65235;DHT22;51820;48.374;10.930;2022-10-22T05:53:51;14.00;79.70
65235;DHT22;51820;48.374;10.930;2022-10-22T05:56:21;14.10;79.90
65235;DHT22;51820;48.374;10.930;2022-10-22T06:01:20;14.10;79.60
65235;DHT22;51820;48.374;10.930;2022-10-22T06:06:20;13.60;79.60
65235;DHT22;51820;48.374;10.930;2022-10-22T06:08:50;14.10;80.10
65235;DHT22;51820;48.374;10.930;2022-10-22T06:11:22;14.10;80.10
65235;DHT22;51820;48.374;10.930;2022-10-22T06:23:44;13.80;92.20
65235;DHT22;51820;48.374;10.930;2022-10-22T06:28:45;14.10;92.20
65235;DHT22;51820;48.374;10.930;2022-10-22T06:31:13;18.80;93.40
65235;DHT22;51820;48.374;10.930;2022-10-22T06:36:11;14.30;79.50
65235;DHT22;51820;48.374;10.930;2022-10-22T06:38:40;16.40;92.60
65235;DHT22;51820;48.374;10.930;2022-10-22T06:41:10;13.40;91.70
65235;DHT22;51820;48.374;10.930;2022-10-22T06:43:38;13.30;91.80
65235;DHT22;51820;48.374;10.930;2022-10-22T06:46:08;14.30;79.00
65235;DHT22;51820;48.374;10.930;2022-10-22T06:48:49;13.50;91.90
65235;DHT22;51820;48.374;10.930;2022-10-22T06:51:17;14.30;78.90
65235;DHT22;51820;48.374;10.930;2022-10-22T06:53:47;11.80;91.20
65235;DHT22;51820;48.374;10.930;2022-10-22T06:56:17;14.30;78.70
65235;DHT22;51820;48.374;10.930;2022-10-22T06:58:46;13.80;89.40
65235;DHT22;51820;48.374;10.930;2022-10-22T07:01:17;14.30;78.90
65235;DHT22;51820;48.374;10.930;2022-10-22T07:06:14;11.90;91.40
65235;DHT22;51820;48.374;10.930;2022-10-22T07:08:43;18.50;93.00
65235;DHT22;51820;48.374;10.930;2022-10-22T07:11:13;14.30;78.80
65235;DHT22;51820;48.374;10.930;2022-10-22T07:18:43;14.30;78.50
65235;DHT22;51820;48.374;10.930;2022-10-22T07:21:14;14.40;78.80
65235;DHT22;51820;48.374;10.930;2022-10-22T07:26:15;14.40;78.80
65235;DHT22;51820;48.374;10.930;2022-10-22T07:28:51;14.50;78.60
65235;DHT22;51820;48.374;10.930;2022-10-22T07:33:52;14.50;78.20
65235;DHT22;51820;48.374;10.930;2022-10-22T07:38:53;14.50;77.50
65235;DHT22;51820;48.374;10.930;2022-10-22T07:46:21;14.60;79.10
65235;DHT22;51820;48.374;10.930;2022-10-22T07:51:23;16.10;78.70
65235;DHT22;51820;48.374;10.930;2022-10-22T07:58:51;14.70;77.90
65235;DHT22;51820;48.374;10.930;2022-10-22T08:01:23;14.70;79.30
65235;DHT22;51820;48.374;10.930;2022-10-22T08:03:56;14.70;78.40
65235;DHT22;51820;48.374;10.930;2022-10-22T08:06:25;14.70;77.60
65235;DHT22;51820;48.374;10.930;2022-10-22T08:16:23;14.80;78.90
65235;DHT22;51820;48.374;10.930;2022-10-22T08:23:52;14.80;78.00
65235;DHT22;51820;48.374;10.930;2022-10-22T08:28:52;16.50;80.50
65235;DHT22;51820;48.374;10.930;2022-10-22T08:31:39;12.50;90.90
65235;DHT22;51820;48.374;10.930;2022-10-22T08:39:11;15.00;78.10
65235;DHT22;51820;48.374;10.930;2022-10-22T08:46:19;15.00;78.20
65235;DHT22;51820;48.374;10.930;2022-10-22T08:48:57;15.10;78.00
65235;DHT22;51820;48.374;10.930;2022-10-22T08:51:30;14.80;77.50
65235;DHT22;51820;48.374;10.930;2022-10-22T08:54:32;15.10;77.80
65235;DHT22;51820;48.374;10.930;2022-10-22T08:57:26;15.10;77.80
65235;DHT22;51820;48.374;10.930;2022-10-22T09:00:03;15.10;77.90
65235;DHT22;51820;48.374;10.930;2022-10-22T09:02:37;15.10;77.90
65235;DHT22;51820;48.374;10.930;2022-10-22T09:14:29;14.00;77.90
65235;DHT22;51820;48.374;10.930;2022-10-22T09:34:35;15.40;78.70
65235;DHT22;51820;48.374;10.930;2022-10-22T09:37:07;19.80;83.00
65235;DHT22;51820;48.374;10.930;2022-10-22T09:39:40;15.50;78.60
65235;DHT22;51820;48.374;10.930;2022-10-22T09:42:24;15.50;78.40
65235;DHT22;51820;48.374;10.930;2022-10-22T09:44:55;15.60;78.40
65235;DHT22;51820;48.374;10.930;2022-10-22T09:47:33;15.60;78.20
65235;DHT22;51820;48.374;10.930;2022-10-22T09:50:27;15.80;77.90
65235;DHT22;51820;48.374;10.930;2022-10-22T09:52:59;15.80;77.90
65235;DHT22;51820;48.374;10.930;2022-10-22T09:57:59;15.90;77.50
65235;DHT22;51820;48.374;10.930;2022-10-22T10:00:31;15.90;77.20
65235;DHT22;51820;48.374;10.930;2022-10-22T10:05:34;15.90;77.00
65235;DHT22;51820;48.374;10.930;2022-10-22T10:08:11;13.80;90.20
65235;DHT22;51820;48.374;10.930;2022-10-22T10:10:44;15.10;90.50
65235;DHT22;51820;48.374;10.930;2022-10-22T10:13:24;16.00;75.70
65235;DHT22;51820;48.374;10.930;2022-10-22T10:16:03;16.00;76.10
65235;DHT22;51820;48.374;10.930;2022-10-22T10:18:50;16.10;76.10
65235;DHT22;51820;48.374;10.930;2022-10-22T10:21:32;16.00;76.10
65235;DHT22;51820;48.374;10.930;2022-10-22T10:24:11;16.10;75.60
65235;DHT22;51820;48.374;10.930;2022-10-22T10:26:46;16.00;75.80
65235;DHT22;51820;48.374;10.930;2022-10-22T10:29:27;16.00;75.90
65235;DHT22;51820;48.374;10.930;2022-10-22T10:32:31;16.10;76.00
65235;DHT22;51820;48.374;10.930;2022-10-22T10:35:37;15.20;90.20
65235;DHT22;51820;48.374;10.930;2022-10-22T10:38:36;16.10;75.90
65235;DHT22;51820;48.374;10.930;2022-10-22T10:41:18;16.10;75.80
65235;DHT22;51820;48.374;10.930;2022-10-22T10:44:09;16.10;75.40
65235;DHT22;51820;48.374;10.930;2022-10-22T10:46:54;20.90;91.10
65235;DHT22;51820;48.374;10.930;2022-10-22T10:49:26;16.10;75.10
65235;DHT22;51820;48.374;10.930;2022-10-22T10:52:03;15.90;89.80
65235;DHT22;51820;48.374;10.930;2022-10-22T10:54:45;16.10;75.50
65235;DHT22;51820;48.374;10.930;2022-10-22T10:57:21;16.10;75.40
65235;DHT22;51820;48.374;10.930;2022-10-22T11:00:07;16.10;75.40
65235;DHT22;51820;48.374;10.930;2022-10-22T11:03:13;16.20;75.40
65235;DHT22;51820;48.374;10.930;2022-10-22T11:05:51;16.20;75.40
65235;DHT22;51820;48.374;10.930;2022-10-22T11:08:23;16.20;75.50
65235;DHT22;51820;48.374;10.930;2022-10-22T11:10:58;16.30;75.60
65235;DHT22;51820;48.374;10.930;2022-10-22T11:13:30;16.30;75.70
65235;DHT22;51820;48.374;10.930;2022-10-22T11:16:04;14.40;88.90
65235;DHT22;51820;48.374;10.930;2022-10-22T11:18:38;14.20;89.00
65235;DHT22;51820;48.374;10.930;2022-10-22T11:21:15;16.40;75.80
65235;DHT22;51820;48.374;10.930;2022-10-22T11:23:51;16.40;75.80
65235;DHT22;51820;48.374;10.930;2022-10-22T11:26:32;16.50;75.30
65235;DHT22;51820;48.374;10.930;2022-10-22T11:29:04;16.60;75.20
65235;DHT22;51820;48.374;10.930;2022-10-22T11:31:38;16.80;75.90
65235;DHT22;51820;48.374;10.930;2022-10-22T11:34:21;17.00;74.90
65235;DHT22;51820;48.374;10.930;2022-10-22T11:37:00;17.30;74.50
65235;DHT22;51820;48.374;10.930;2022-10-22T11:39:39;17.70;72.40
65235;DHT22;51820;48.374;10.930;2022-10-22T11:46:27;18.40;70.50
65235;DHT22;51820;48.374;10.930;2022-10-22T11:49:03;18.80;68.70
65235;DHT22;51820;48.374;10.930;2022-10-22T11:51:34;19.00;67.80
65235;DHT22;51820;48.374;10.930;2022-10-22T11:54:29;17.90;80.00
65235;DHT22;51820;48.374;10.930;2022-10-22T11:57:16;18.30;70.70
65235;DHT22;51820;48.374;10.930;2022-10-22T11:59:49;18.80;72.00
65235;DHT22;51820;48.374;10.930;2022-10-22T12:02:41;20.60;71.40
65235;DHT22;51820;48.374;10.930;2022-10-22T12:05:43;20.50;71.00
65235;DHT22;51820;48.374;10.930;2022-10-22T12:08:26;19.20;68.30
65235;DHT22;51820;48.374;10.930;2022-10-22T12:11:02;20.60;58.30
65235;DHT22;51820;48.374;10.930;2022-10-22T12:13:32;21.10;69.20
65235;DHT22;51820;48.374;10.930;2022-10-22T12:16:02;21.70;68.60
65235;DHT22;51820;48.374;10.930;2022-10-22T12:18:40;20.90;68.80
65235;DHT22;51820;48.374;10.930;2022-10-22T12:21:11;21.30;65.40
65235;DHT22;51820;48.374;10.930;2022-10-22T12:23:39;19.30;65.40
65235;DHT22;51820;48.374;10.930;2022-10-22T12:26:25;20.10;66.20
65235;DHT22;51820;48.374;10.930;2022-10-22T12:28:57;21.50;67.50
65235;DHT22;51820;48.374;10.930;2022-10-22T12:31:35;21.50;55.80
65235;DHT22;51820;48.374;10.930;2022-10-22T12:34:13;20.90;65.00
65235;DHT22;51820;48.374;10.930;2022-10-22T12:36:42;20.70;64.30
65235;DHT22;51820;48.374;10.930;2022-10-22T12:39:12;21.30;66.30
65235;DHT22;51820;48.374;10.930;2022-10-22T12:41:43;21.20;65.90
65235;DHT22;51820;48.374;10.930;2022-10-22T12:44:13;20.50;65.90
65235;DHT22;51820;48.374;10.930;2022-10-22T12:47:25;21.30;65.80
65235;DHT22;51820;48.374;10.930;2022-10-22T12:49:42;21.30;66.90
65235;DHT22;51820;48.374;10.930;2022-10-22T12:52:34;20.80;67.10
65235;DHT22;51820;48.374;10.930;2022-10-22T12:55:18;20.50;68.40
65235;DHT22;51820;48.374;10.930;2022-10-22T12:57:58;20.30;67.10
65235;DHT22;51820;48.374;10.930;2022-10-22T13:00:31;21.90;68.70
65235;DHT22;51820;48.374;10.930;2022-10-22T13:03:05;21.20;68.40
65235;DHT22;51820;48.374;10.930;2022-10-22T13:05:36;23.50;70.60
65235;DHT22;51820;48.374;10.930;2022-10-22T13:08:09;20.70;63.50
65235;DHT22;51820;48.374;10.930;2022-10-22T13:10:39;19.80;66.70
65235;DHT22;51820;48.374;10.930;2022-10-22T13:13:29;20.30;63.70
65235;DHT22;51820;48.374;10.930;2022-10-22T13:16:15;21.20;53.50
65235;DHT22;51820;48.374;10.930;2022-10-22T13:18:46;22.10;65.70
65235;DHT22;51820;48.374;10.930;2022-10-22T13:21:26;21.10;65.60
65235;DHT22;51820;48.374;10.930;2022-10-22T13:23:57;21.00;64.00
65235;DHT22;51820;48.374;10.930;2022-10-22T13:26:31;20.10;52.70
65235;DHT22;51820;48.374;10.930;2022-10-22T13:29:02;20.90;64.20
65235;DHT22;51820;48.374;10.930;2022-10-22T13:31:32;21.70;64.40
65235;DHT22;51820;48.374;10.930;2022-10-22T13:34:04;21.00;52.20
65235;DHT22;51820;48.374;10.930;2022-10-22T13:36:41;21.10;65.30
65235;DHT22;51820;48.374;10.930;2022-10-22T13:39:14;21.00;52.50
65235;DHT22;51820;48.374;10.930;2022-10-22T13:41:47;21.30;65.70
65235;DHT22;51820;48.374;10.930;2022-10-22T13:46:46;21.20;64.50
65235;DHT22;51820;48.374;10.930;2022-10-22T13:49:17;20.90;53.30
65235;DHT22;51820;48.374;10.930;2022-10-22T13:51:50;21.10;65.10
65235;DHT22;51820;48.374;10.930;2022-10-22T13:54:20;19.30;64.40
65235;DHT22;51820;48.374;10.930;2022-10-22T13:56:49;19.80;65.00
65235;DHT22;51820;48.374;10.930;2022-10-22T13:59:18;19.60;64.50
65235;DHT22;51820;48.374;10.930;2022-10-22T14:01:50;19.80;65.50
65235;DHT22;51820;48.374;10.930;2022-10-22T14:04:19;19.60;63.80
65235;DHT22;51820;48.374;10.930;2022-10-22T14:06:47;21.10;65.50
65235;DHT22;51820;48.374;10.930;2022-10-22T14:09:17;20.90;64.70
65235;DHT22;51820;48.374;10.930;2022-10-22T14:11:47;19.60;64.10
65235;DHT22;51820;48.374;10.930;2022-10-22T14:19:23;20.60;64.60
65235;DHT22;51820;48.374;10.930;2022-10-22T14:21:52;20.80;64.50
65235;DHT22;51820;48.374;10.930;2022-10-22T14:24:27;20.70;52.10
65235;DHT22;51820;48.374;10.930;2022-10-22T14:26:55;18.90;64.30
65235;DHT22;51820;48.374;10.930;2022-10-22T14:41:49;20.50;52.40
65235;DHT22;51820;48.374;10.930;2022-10-22T14:44:18;20.20;65.20
65235;DHT22;51820;48.374;10.930;2022-10-22T14:46:54;19.60;65.30
65235;DHT22;51820;48.374;10.930;2022-10-22T14:54:20;20.20;66.40
65235;DHT22;51820;48.374;10.930;2022-10-22T14:56:54;20.30;66.30
65235;DHT22;51820;48.374;10.930;2022-10-22T15:07:49;20.20;52.90
65235;DHT22;51820;48.374;10.930;2022-10-22T15:12:48;19.80;52.40
65235;DHT22;51820;48.374;10.930;2022-10-22T15:20:27;20.00;52.80
65235;DHT22;51820;48.374;10.930;2022-10-22T15:28:01;19.90;54.00
65235;DHT22;51820;48.374;10.930;2022-10-22T15:30:44;19.90;54.20
65235;DHT22;51820;48.374;10.930;2022-10-22T15:33:15;19.80;55.40
65235;DHT22;51820;48.374;10.930;2022-10-22T15:38:19;19.70;54.60
65235;DHT22;51820;48.374;10.930;2022-10-22T15:43:20;19.70;67.60
65235;DHT22;51820;48.374;10.930;2022-10-22T15:46:07;19.60;55.60
65235;DHT22;51820;48.374;10.930;2022-10-22T15:51:13;19.50;55.50
65235;DHT22;51820;48.374;10.930;2022-10-22T15:54:03;19.50;56.60
65235;DHT22;51820;48.374;10.930;2022-10-22T15:59:12;19.40;56.30
65235;DHT22;51820;48.374;10.930;2022-10-22T16:04:14;19.30;56.90
65235;DHT22;51820;48.374;10.930;2022-10-22T16:06:50;19.30;57.60
65235;DHT22;51820;48.374;10.930;2022-10-22T16:09:22;19.30;56.70
65235;DHT22;51820;48.374;10.930;2022-10-22T16:11:52;19.20;56.80
65235;DHT22;51820;48.374;10.930;2022-10-22T16:14:25;19.20;56.90
65235;DHT22;51820;48.374;10.930;2022-10-22T16:16:55;19.20;57.40
65235;DHT22;51820;48.374;10.930;2022-10-22T16:21:55;19.20;58.20
65235;DHT22;51820;48.374;10.930;2022-10-22T16:29:27;19.00;58.70
65235;DHT22;51820;48.374;10.930;2022-10-22T16:39:28;19.10;72.90
65235;DHT22;51820;48.374;10.930;2022-10-22T16:41:59;19.00;73.30
65235;DHT22;51820;48.374;10.930;2022-10-22T16:44:29;18.70;59.50
65235;DHT22;51820;48.374;10.930;2022-10-22T16:49:28;18.60;60.80
65235;DHT22;51820;48.374;10.930;2022-10-22T16:51:57;19.30;74.40
65235;DHT22;51820;48.374;10.930;2022-10-22T16:54:25;17.10;73.70
65235;DHT22;51820;48.374;10.930;2022-10-22T17:01:52;18.20;61.60
65235;DHT22;51820;48.374;10.930;2022-10-22T17:11:47;22.10;79.40
65235;DHT22;51820;48.374;10.930;2022-10-22T17:16:47;16.10;76.30
65235;DHT22;51820;48.374;10.930;2022-10-22T17:19:22;17.80;63.50
65235;DHT22;51820;48.374;10.930;2022-10-22T17:24:20;17.70;65.50
65235;DHT22;51820;48.374;10.930;2022-10-22T17:36:46;17.30;64.40
65235;DHT22;51820;48.374;10.930;2022-10-22T17:39:17;17.30;64.80
65235;DHT22;51820;48.374;10.930;2022-10-22T17:44:14;17.20;64.80
65235;DHT22;51820;48.374;10.930;2022-10-22T17:49:16;17.40;79.60
65235;DHT22;51820;48.374;10.930;2022-10-22T17:51:46;15.40;78.60
65235;DHT22;51820;48.374;10.930;2022-10-22T17:59:13;17.10;65.30
65235;DHT22;51820;48.374;10.930;2022-10-22T18:04:15;15.50;79.20
65235;DHT22;51820;48.374;10.930;2022-10-22T18:06:44;16.30;79.80
65235;DHT22;51820;48.374;10.930;2022-10-22T18:09:16;14.70;79.40
65235;DHT22;51820;48.374;10.930;2022-10-22T18:11:46;16.90;65.90
65235;DHT22;51820;48.374;10.930;2022-10-22T18:14:16;16.90;66.00
65235;DHT22;51820;48.374;10.930;2022-10-22T18:19:16;16.90;66.00
65235;DHT22;51820;48.374;10.930;2022-10-22T18:24:16;16.90;66.10
65235;DHT22;51820;48.374;10.930;2022-10-22T18:26:45;16.40;80.80
65235;DHT22;51820;48.374;10.930;2022-10-22T18:29:15;16.70;66.10
65235;DHT22;51820;48.374;10.930;2022-10-22T18:31:45;16.70;66.40
65235;DHT22;51820;48.374;10.930;2022-10-22T18:39:17;20.80;84.10
65235;DHT22;51820;48.374;10.930;2022-10-22T18:44:15;16.50;67.10
65235;DHT22;51820;48.374;10.930;2022-10-22T18:46:46;13.90;80.80
65235;DHT22;51820;48.374;10.930;2022-10-22T18:49:16;16.40;67.20
65235;DHT22;51820;48.374;10.930;2022-10-22T18:51:46;16.40;82.60
65235;DHT22;51820;48.374;10.930;2022-10-22T18:54:20;16.30;67.20
65235;DHT22;51820;48.374;10.930;2022-10-22T18:56:51;16.20;67.40
65235;DHT22;51820;48.374;10.930;2022-10-22T18:59:28;14.40;81.60
65235;DHT22;51820;48.374;10.930;2022-10-22T19:04:26;16.10;68.10
65235;DHT22;51820;48.374;10.930;2022-10-22T19:09:29;16.10;68.00
65235;DHT22;51820;48.374;10.930;2022-10-22T19:11:57;15.40;82.90
65235;DHT22;51820;48.374;10.930;2022-10-22T19:14:26;14.30;82.10
65235;DHT22;51820;48.374;10.930;2022-10-22T19:24:22;13.70;82.60
65235;DHT22;51820;48.374;10.930;2022-10-22T19:26:51;15.90;68.50
65235;DHT22;51820;48.374;10.930;2022-10-22T19:29:20;15.90;68.50
65235;DHT22;51820;48.374;10.930;2022-10-22T19:44:16;15.70;68.80
65235;DHT22;51820;48.374;10.930;2022-10-22T19:49:14;13.80;83.40
65235;DHT22;51820;48.374;10.930;2022-10-22T19:56:47;15.60;69.30
65235;DHT22;51820;48.374;10.930;2022-10-22T19:59:17;15.60;69.60
65235;DHT22;51820;48.374;10.930;2022-10-22T20:04:16;15.60;69.40
65235;DHT22;51820;48.374;10.930;2022-10-22T20:06:45;15.60;69.20
65235;DHT22;51820;48.374;10.930;2022-10-22T20:11:42;15.50;69.20
65235;DHT22;51820;48.374;10.930;2022-10-22T20:14:13;15.40;69.40
65235;DHT22;51820;48.374;10.930;2022-10-22T20:16:45;15.40;69.40
65235;DHT22;51820;48.374;10.930;2022-10-22T20:21:44;15.40;69.40
65235;DHT22;51820;48.374;10.930;2022-10-22T20:26:44;15.30;70.00
65235;DHT22;51820;48.374;10.930;2022-10-22T20:29:13;15.30;70.40
65235;DHT22;51820;48.374;10.930;2022-10-22T20:31:44;15.20;70.40
65235;DHT22;51820;48.374;10.930;2022-10-22T20:39:38;15.30;70.60
65235;DHT22;51820;48.374;10.930;2022-10-22T20:42:13;15.80;70.50
65235;DHT22;51820;48.374;10.930;2022-10-22T20:47:19;15.30;69.90
65235;DHT22;51820;48.374;10.930;2022-10-22T20:52:24;13.70;85.10
65235;DHT22;51820;48.374;10.930;2022-10-22T21:02:22;15.10;70.50
65235;DHT22;51820;48.374;10.930;2022-10-22T21:19:44;15.00;70.90
65235;DHT22;51820;48.374;10.930;2022-10-22T21:22:19;15.00;70.90
65235;DHT22;51820;48.374;10.930;2022-10-22T21:29:50;14.60;86.40
65235;DHT22;51820;48.374;10.930;2022-10-22T21:34:52;14.00;86.20
65235;DHT22;51820;48.374;10.930;2022-10-22T21:37:44;14.90;71.00
65235;DHT22;51820;48.374;10.930;2022-10-22T21:50:57;14.70;71.20
65235;DHT22;51820;48.374;10.930;2022-10-22T21:55:57;13.00;86.10
65235;DHT22;51820;48.374;10.930;2022-10-22T21:58:34;14.80;71.20
65235;DHT22;51820;48.374;10.930;2022-10-22T22:06:49;14.80;71.10
65235;DHT22;51820;48.374;10.930;2022-10-22T22:09:24;15.00;71.70
65235;DHT22;51820;48.374;10.930;2022-10-22T22:12:18;14.70;71.30
65235;DHT22;51820;48.374;10.930;2022-10-22T22:23:23;14.80;71.10
65235;DHT22;51820;48.374;10.930;2022-10-22T22:36:18;14.60;71.20
65235;DHT22;51820;48.374;10.930;2022-10-22T22:38:52;14.60;71.20
65235;DHT22;51820;48.374;10.930;2022-10-22T22:51:24;12.10;86.00
65235;DHT22;51820;48.374;10.930;2022-10-22T22:54:25;14.40;71.70
65235;DHT22;51820;48.374;10.930;2022-10-22T22:56:55;13.30;87.30
65235;DHT22;51820;48.374;10.930;2022-10-22T23:04:26;13.80;87.90
65235;DHT22;51820;48.374;10.930;2022-10-22T23:09:27;14.20;72.20
65235;DHT22;51820;48.374;10.930;2022-10-22T23:11:55;14.10;72.20
65235;DHT22;51820;48.374;10.930;2022-10-22T23:19:22;14.10;71.60
65235;DHT22;51820;48.374;10.930;2022-10-22T23:21:52;14.00;71.70
65235;DHT22;51820;48.374;10.930;2022-10-22T23:24:22;14.00;71.90
65235;DHT22;51820;48.374;10.930;2022-10-22T23:26:55;14.00;72.40
65235;DHT22;51820;48.374;10.930;2022-10-22T23:29:25;13.90;72.30
65235;DHT22;51820;48.374;10.930;2022-10-22T23:34:23;14.00;72.50
65235;DHT22;51820;48.374;10.930;2022-10-22T23:36:57;14.00;72.60
65235;DHT22;51820;48.374;10.930;2022-10-22T23:39:26;11.70;87.60
65235;DHT22;51820;48.374;10.930;2022-10-22T23:41:56;14.00;72.50
65235;DHT22;51820;48.374;10.930;2022-10-22T23:44:25;17.60;90.20
65235;DHT22;51820;48.374;10.930;2022-10-22T23:49:21;18.70;90.20
65235;DHT22;51820;48.374;10.930;2022-10-22T23:56:47;13.60;87.90
65235;DHT22;51820;48.374;10.930;2022-10-22T23:59:16;14.00;72.00
